createdAt,value
2019-05-11T00:02:26.934Z,13.40
2019-05-11T00:04:58.025Z,13.20
2019-05-11T00:07:45.936Z,13.30
2019-05-11T00:10:14.677Z,13.20
2019-05-11T00:12:43.101Z,13.20
2019-05-11T00:15:11.790Z,13.20
2019-05-11T00:17:40.302Z,13.20
2019-05-11T00:20:09.399Z,13.10
2019-05-11T00:22:37.896Z,13.10
2019-05-11T00:25:08.043Z,13.10
2019-05-11T00:27:36.560Z,13.10
2019-05-11T00:30:05.918Z,13.10
2019-05-11T00:32:34.355Z,13.00
2019-05-11T00:35:02.757Z,13.10
2019-05-11T00:37:31.177Z,13.20
2019-05-11T00:40:13.300Z,13.20
2019-05-11T00:42:29.830Z,13.20
2019-05-11T00:44:58.258Z,13.30
2019-05-11T00:47:26.671Z,13.30
2019-05-11T00:49:55.118Z,13.20
2019-05-11T00:52:23.524Z,13.20
2019-05-11T00:54:51.991Z,13.20
2019-05-11T00:57:20.448Z,13.20
2019-05-11T00:59:48.901Z,13.20
2019-05-11T01:02:17.323Z,13.30
2019-05-11T01:04:45.766Z,13.20
2019-05-11T01:07:14.476Z,13.20
2019-05-11T01:09:42.906Z,13.20
2019-05-11T01:12:11.335Z,13.20
2019-05-11T01:14:39.810Z,13.20
2019-05-11T01:17:08.242Z,13.20
2019-05-11T01:19:36.956Z,13.20
2019-05-11T01:22:05.393Z,13.20
2019-05-11T01:24:33.858Z,13.20
2019-05-11T01:27:02.278Z,13.20
2019-05-11T01:29:30.753Z,13.20
2019-05-11T01:31:59.246Z,13.10
2019-05-11T01:34:28.707Z,13.10
2019-05-11T01:36:57.122Z,13.20
2019-05-11T01:39:25.571Z,13.10
2019-05-11T01:41:53.990Z,13.10
2019-05-11T01:44:22.426Z,13.10
2019-05-11T01:46:50.935Z,13.10
2019-05-11T01:49:19.343Z,13.10
2019-05-11T01:51:47.803Z,13.20
2019-05-11T01:54:16.246Z,13.30
2019-05-11T01:56:44.730Z,13.40
2019-05-11T01:59:13.176Z,13.50
2019-05-11T02:01:41.710Z,13.50
2019-05-11T02:04:10.157Z,13.60
2019-05-11T02:06:38.569Z,13.60
2019-05-11T02:09:07.143Z,13.60
2019-05-11T02:11:35.559Z,13.70
2019-05-11T02:14:04.501Z,13.70
2019-05-11T02:16:32.904Z,13.80
2019-05-11T02:19:01.378Z,13.80
2019-05-11T02:21:29.795Z,13.80
2019-05-11T02:23:58.223Z,13.90
2019-05-11T02:26:26.666Z,13.90
2019-05-11T02:28:55.077Z,13.90
2019-05-11T02:31:23.495Z,13.90
2019-05-11T02:33:51.931Z,13.90
2019-05-11T02:36:20.359Z,13.90
2019-05-11T02:38:48.826Z,13.90
2019-05-11T02:41:34.474Z,14.00
2019-05-11T02:43:47.469Z,14.00
2019-05-11T02:46:17.203Z,14.20
2019-05-11T02:48:45.615Z,14.20
2019-05-11T02:51:14.492Z,14.20
2019-05-11T02:53:44.498Z,14.30
2019-05-11T02:56:12.918Z,14.30
2019-05-11T02:58:42.419Z,14.30
2019-05-11T03:01:10.962Z,14.40
2019-05-11T03:03:39.404Z,14.40
2019-05-11T03:06:07.832Z,14.40
2019-05-11T03:08:37.340Z,14.50
2019-05-11T03:11:05.814Z,14.40
2019-05-11T03:13:34.228Z,14.50
2019-05-11T03:16:02.653Z,14.50
2019-05-11T03:18:31.168Z,14.50
2019-05-11T03:20:59.594Z,14.60
2019-05-11T03:23:28.085Z,14.60
2019-05-11T03:25:56.517Z,14.70
2019-05-11T03:28:24.917Z,14.70
2019-05-11T03:30:53.368Z,14.70
2019-05-11T03:33:21.766Z,14.70
2019-05-11T03:35:50.208Z,14.80
2019-05-11T03:38:18.620Z,14.70
2019-05-11T03:40:47.060Z,14.80
2019-05-11T03:43:15.546Z,14.80
2019-05-11T03:45:43.999Z,14.80
2019-05-11T03:48:12.415Z,14.80
2019-05-11T03:50:40.824Z,14.90
2019-05-11T03:53:09.263Z,14.90
2019-05-11T03:55:57.011Z,14.90
2019-05-11T03:58:26.755Z,14.80
2019-05-11T04:00:55.400Z,14.80
2019-05-11T04:03:23.842Z,14.70
2019-05-11T04:05:52.248Z,14.80
2019-05-11T04:08:20.669Z,14.80
2019-05-11T04:10:49.178Z,14.80
2019-05-11T04:13:17.616Z,14.80
2019-05-11T04:15:46.034Z,14.80
2019-05-11T04:18:14.446Z,14.80
2019-05-11T04:20:42.857Z,14.80
2019-05-11T04:23:11.329Z,14.70
2019-05-11T04:25:39.806Z,14.70
2019-05-11T04:28:08.223Z,14.70
2019-05-11T04:30:36.727Z,14.70
2019-05-11T04:33:05.239Z,14.70
2019-05-11T04:35:33.771Z,14.70
2019-05-11T04:38:02.221Z,14.70
2019-05-11T04:40:31.595Z,14.70
2019-05-11T04:42:59.999Z,14.80
2019-05-11T04:45:28.427Z,14.80
2019-05-11T04:47:56.850Z,14.70
2019-05-11T04:50:25.394Z,14.80
2019-05-11T04:52:53.880Z,14.80
2019-05-11T04:55:22.309Z,14.80
2019-05-11T04:57:50.748Z,14.80
2019-05-11T05:00:19.381Z,14.80
2019-05-11T05:02:47.873Z,14.80
2019-05-11T05:05:16.306Z,14.80
2019-05-11T05:07:49.026Z,14.80
2019-05-11T05:10:20.071Z,14.80
2019-05-11T05:12:50.409Z,14.80
2019-05-11T05:15:15.360Z,14.80
2019-05-11T05:17:43.794Z,14.90
2019-05-11T05:20:12.582Z,14.90
2019-05-11T05:22:41.055Z,15.00
2019-05-11T05:25:11.034Z,15.00
2019-05-11T05:27:39.463Z,15.10
2019-05-11T05:30:08.694Z,15.10
2019-05-11T05:32:37.309Z,15.10
2019-05-11T05:35:06.644Z,15.10
2019-05-11T05:37:35.359Z,15.10
2019-05-11T05:40:04.998Z,15.20
2019-05-11T05:42:34.330Z,15.20
2019-05-11T05:45:02.831Z,15.30
2019-05-11T05:47:31.250Z,15.30
2019-05-11T05:49:59.648Z,15.40
2019-05-11T05:52:28.079Z,15.30
2019-05-11T05:54:56.518Z,15.30
2019-05-11T05:57:24.945Z,15.30
2019-05-11T05:59:53.364Z,15.40
2019-05-11T06:02:21.774Z,15.30
2019-05-11T06:04:50.201Z,15.20
2019-05-11T06:07:18.612Z,15.20
2019-05-11T06:09:47.069Z,15.10
2019-05-11T06:12:15.479Z,15.20
2019-05-11T06:14:44.177Z,15.20
2019-05-11T06:17:12.618Z,15.30
2019-05-11T06:19:41.065Z,15.30
2019-05-11T06:22:09.493Z,15.30
2019-05-11T06:24:37.914Z,15.30
2019-05-11T06:27:06.336Z,15.40
2019-05-11T06:29:34.820Z,15.50
2019-05-11T06:32:03.274Z,15.50
2019-05-11T06:34:31.799Z,15.60
2019-05-11T06:37:00.222Z,15.60
2019-05-11T06:39:31.310Z,15.50
2019-05-11T06:41:59.726Z,15.50
2019-05-11T06:44:28.163Z,15.50
2019-05-11T06:46:56.623Z,15.50
2019-05-11T06:49:25.043Z,15.50
2019-05-11T06:51:53.449Z,15.50
2019-05-11T06:54:21.986Z,15.60
2019-05-11T06:56:50.397Z,15.70
2019-05-11T06:59:18.824Z,15.80
2019-05-11T07:01:47.255Z,15.80
2019-05-11T07:04:15.812Z,15.80
2019-05-11T07:06:44.259Z,15.90
2019-05-11T07:09:18.685Z,15.90
2019-05-11T07:11:47.237Z,15.80
2019-05-11T07:14:20.412Z,15.80
2019-05-11T07:16:45.800Z,15.90
2019-05-11T07:19:14.288Z,15.90
2019-05-11T07:21:42.714Z,15.80
2019-05-11T07:24:11.190Z,15.80
2019-05-11T07:26:39.654Z,15.80
2019-05-11T07:29:08.063Z,15.80
2019-05-11T07:31:36.553Z,16.00
2019-05-11T07:34:05.329Z,16.00
2019-05-11T07:36:33.756Z,16.00
2019-05-11T07:39:02.201Z,15.90
2019-05-11T07:41:30.686Z,16.00
2019-05-11T07:43:59.211Z,16.20
2019-05-11T07:46:28.811Z,16.30
2019-05-11T07:48:58.416Z,16.20
2019-05-11T07:51:28.782Z,16.10
2019-05-11T07:53:57.938Z,16.00
2019-05-11T07:56:28.515Z,16.00
2019-05-11T07:58:58.066Z,16.10
2019-05-11T08:01:28.180Z,16.30
2019-05-11T08:03:58.606Z,16.50
2019-05-11T08:06:28.522Z,16.40
2019-05-11T08:08:58.848Z,16.70
2019-05-11T08:11:30.802Z,16.90
2019-05-11T08:13:58.401Z,17.00
2019-05-11T08:16:28.608Z,17.20
2019-05-11T08:18:58.844Z,17.40
2019-05-11T08:21:28.334Z,17.50
2019-05-11T08:23:58.727Z,17.70
2019-05-11T08:26:28.269Z,17.80
2019-05-11T08:28:57.868Z,18.00
2019-05-11T08:31:27.887Z,18.00
2019-05-11T08:33:58.287Z,18.00
2019-05-11T08:36:28.869Z,17.90
2019-05-11T08:38:58.492Z,17.90
2019-05-11T08:41:27.985Z,18.00
2019-05-11T08:43:58.611Z,18.10
2019-05-11T08:46:27.964Z,18.10
2019-05-11T08:48:56.513Z,18.10
2019-05-11T08:51:25.023Z,18.30
2019-05-11T08:53:53.429Z,18.30
2019-05-11T08:56:21.858Z,18.20
2019-05-11T08:58:50.283Z,18.10
2019-05-11T09:01:18.713Z,18.00
2019-05-11T09:03:47.800Z,17.90
2019-05-11T09:06:17.979Z,18.00
2019-05-11T09:08:49.069Z,18.00
2019-05-11T09:11:18.840Z,17.70
2019-05-11T09:13:48.811Z,17.60
2019-05-11T09:16:19.073Z,17.50
2019-05-11T09:18:47.908Z,17.50
2019-05-11T09:21:18.765Z,17.60
2019-05-11T09:23:48.632Z,17.90
2019-05-11T09:26:18.094Z,18.00
2019-05-11T09:28:47.605Z,18.10
2019-05-11T09:31:18.645Z,18.20
2019-05-11T09:33:47.927Z,18.20
2019-05-11T09:36:18.121Z,18.20
2019-05-11T09:38:48.852Z,18.20
2019-05-11T09:41:18.151Z,18.20
2019-05-11T09:43:48.357Z,18.20
2019-05-11T09:46:18.815Z,18.20
2019-05-11T09:48:48.358Z,18.20
2019-05-11T09:51:18.401Z,18.10
2019-05-11T09:53:48.262Z,18.10
2019-05-11T09:56:18.294Z,17.80
2019-05-11T09:58:48.030Z,17.80
2019-05-11T10:01:18.316Z,17.90
2019-05-11T10:03:48.157Z,17.90
2019-05-11T10:06:19.063Z,17.80
2019-05-11T10:08:48.704Z,17.80
2019-05-11T10:11:18.910Z,17.60
2019-05-11T10:13:47.800Z,17.80
2019-05-11T10:16:17.902Z,17.90
2019-05-11T10:18:48.900Z,18.00
2019-05-11T10:21:18.725Z,17.90
2019-05-11T10:23:48.986Z,17.80
2019-05-11T10:26:18.629Z,17.70
2019-05-11T10:28:48.299Z,17.70
2019-05-11T10:31:18.057Z,17.80
2019-05-11T10:33:48.943Z,18.00
2019-05-11T10:36:18.883Z,17.90
2019-05-11T10:38:48.673Z,18.00
2019-05-11T10:41:18.164Z,18.10
2019-05-11T10:43:48.985Z,18.10
2019-05-11T10:46:22.984Z,18.10
2019-05-11T10:48:48.213Z,18.20
2019-05-11T10:51:18.396Z,18.00
2019-05-11T10:53:51.302Z,18.10
2019-05-11T10:56:17.997Z,18.10
2019-05-11T10:58:48.196Z,18.10
2019-05-11T11:01:18.246Z,18.20
2019-05-11T11:03:48.370Z,18.10
2019-05-11T11:06:18.778Z,18.20
2019-05-11T11:08:48.712Z,18.20
2019-05-11T11:11:18.525Z,18.40
2019-05-11T11:13:48.054Z,18.60
2019-05-11T11:16:32.799Z,18.80
2019-05-11T11:18:48.579Z,18.90
2019-05-11T11:21:22.682Z,19.00
2019-05-11T11:23:48.156Z,18.70
2019-05-11T11:26:18.482Z,18.70
2019-05-11T11:28:47.801Z,18.80
2019-05-11T11:31:18.652Z,18.70
2019-05-11T11:33:48.647Z,18.50
2019-05-11T11:36:17.918Z,18.70
2019-05-11T11:38:47.817Z,18.90
2019-05-11T11:41:18.583Z,18.80
2019-05-11T11:43:48.307Z,18.70
2019-05-11T11:46:18.724Z,18.80
2019-05-11T11:48:48.870Z,19.10
2019-05-11T11:51:18.699Z,19.40
2019-05-11T11:53:47.999Z,19.50
2019-05-11T11:56:18.866Z,19.60
2019-05-11T11:58:48.871Z,19.40
2019-05-11T12:01:18.901Z,19.40
2019-05-11T12:03:48.811Z,19.50
2019-05-11T12:06:18.190Z,19.40
2019-05-11T12:08:49.687Z,19.50
2019-05-11T12:11:18.629Z,19.50
2019-05-11T12:13:47.779Z,19.80
2019-05-11T12:16:17.983Z,20.00
2019-05-11T12:18:48.560Z,19.90
2019-05-11T12:21:18.642Z,19.90
2019-05-11T12:23:48.581Z,19.80
2019-05-11T12:26:17.748Z,19.60
2019-05-11T12:28:48.765Z,19.60
2019-05-11T12:31:18.384Z,19.60
2019-05-11T12:33:48.312Z,19.70
2019-05-11T12:36:18.848Z,19.60
2019-05-11T12:38:48.801Z,19.10
2019-05-11T12:41:18.961Z,19.30
2019-05-11T12:43:48.887Z,19.30
2019-05-11T12:46:18.847Z,19.10
2019-05-11T12:48:48.759Z,18.80
2019-05-11T12:51:18.554Z,18.40
2019-05-11T12:53:47.827Z,18.80
2019-05-11T12:56:18.735Z,18.90
2019-05-11T12:58:48.984Z,19.00
2019-05-11T13:01:18.851Z,19.00
2019-05-11T13:03:48.932Z,19.10
2019-05-11T13:06:19.031Z,19.20
2019-05-11T13:08:48.023Z,19.10
2019-05-11T13:11:18.694Z,18.00
2019-05-11T13:13:48.455Z,16.90
2019-05-11T13:16:18.312Z,16.40
2019-05-11T13:18:48.766Z,16.70
2019-05-11T13:21:18.338Z,17.00
2019-05-11T13:23:48.881Z,17.20
2019-05-11T13:26:18.011Z,17.30
2019-05-11T13:28:48.335Z,17.00
2019-05-11T13:31:18.678Z,16.60
2019-05-11T13:33:47.912Z,16.00
2019-05-11T13:36:18.634Z,15.70
2019-05-11T13:38:48.261Z,15.60
2019-05-11T13:41:23.587Z,15.60
2019-05-11T13:43:52.050Z,15.40
2019-05-11T13:46:24.138Z,15.30
2019-05-11T13:48:52.623Z,15.30
2019-05-11T13:51:21.039Z,15.20
2019-05-11T13:53:49.485Z,15.20
2019-05-11T13:56:18.573Z,15.40
2019-05-11T13:58:48.853Z,15.50
2019-05-11T14:01:18.548Z,15.50
2019-05-11T14:03:48.463Z,15.60
2019-05-11T14:06:18.409Z,15.50
2019-05-11T14:08:48.138Z,15.20
2019-05-11T14:11:18.135Z,15.20
2019-05-11T14:13:48.006Z,15.10
2019-05-11T14:16:18.596Z,15.10
2019-05-11T14:18:48.881Z,14.80
2019-05-11T14:21:18.599Z,14.70
2019-05-11T14:23:48.313Z,14.70
2019-05-11T14:26:19.176Z,14.70
2019-05-11T14:28:47.938Z,14.60
2019-05-11T14:31:18.561Z,14.70
2019-05-11T14:33:48.644Z,14.00
2019-05-11T14:36:18.404Z,13.90
2019-05-11T14:38:48.811Z,14.10
2019-05-11T14:41:18.204Z,14.30
2019-05-11T14:43:48.779Z,14.50
2019-05-11T14:46:18.070Z,14.30
2019-05-11T14:48:48.114Z,14.00
2019-05-11T14:51:18.235Z,13.80
2019-05-11T14:53:48.104Z,13.60
2019-05-11T14:56:18.963Z,13.10
2019-05-11T14:58:49.207Z,12.50
2019-05-11T15:01:18.380Z,12.40
2019-05-11T15:03:48.593Z,12.40
2019-05-11T15:06:18.890Z,12.30
2019-05-11T15:08:50.651Z,12.20
2019-05-11T15:11:19.359Z,12.10
2019-05-11T15:13:48.847Z,11.90
2019-05-11T15:16:18.666Z,11.80
2019-05-11T15:18:48.535Z,11.80
2019-05-11T15:21:18.935Z,11.90
2019-05-11T15:23:47.768Z,11.90
2019-05-11T15:26:18.523Z,11.90
2019-05-11T15:28:48.571Z,12.00
2019-05-11T15:31:21.878Z,12.10
2019-05-11T15:33:48.818Z,12.10
2019-05-11T15:36:19.311Z,12.10
2019-05-11T15:38:48.103Z,12.20
2019-05-11T15:41:17.656Z,12.10
2019-05-11T15:43:48.303Z,12.10
2019-05-11T15:46:19.555Z,12.00
2019-05-11T15:48:56.721Z,11.90
2019-05-11T15:51:18.826Z,11.70
2019-05-11T15:53:47.668Z,11.70
2019-05-11T15:56:19.083Z,11.60
2019-05-11T15:58:48.561Z,11.50
2019-05-11T16:01:18.565Z,11.50
2019-05-11T16:03:49.640Z,11.50
2019-05-11T16:06:18.512Z,11.40
2019-05-11T16:08:47.195Z,11.50
2019-05-11T16:11:18.189Z,11.40
2019-05-11T16:13:48.219Z,11.40
2019-05-11T16:16:15.986Z,11.30
2019-05-11T16:18:44.461Z,11.30
2019-05-11T16:21:12.948Z,11.20
2019-05-11T16:23:41.387Z,11.10
2019-05-11T16:26:09.797Z,11.20
2019-05-11T16:28:38.471Z,11.20
2019-05-11T16:31:09.190Z,11.30
2019-05-11T16:33:37.184Z,11.20
2019-05-11T16:36:05.617Z,11.10
2019-05-11T16:38:34.075Z,11.10
2019-05-11T16:41:02.516Z,11.00
2019-05-11T16:43:30.969Z,10.90
2019-05-11T16:45:59.429Z,10.70
2019-05-11T16:48:27.871Z,10.70
2019-05-11T16:50:58.003Z,10.70
2019-05-11T16:53:28.511Z,10.70
2019-05-11T16:55:57.755Z,10.50
2019-05-11T16:58:27.766Z,10.40
2019-05-11T17:00:58.216Z,10.30
2019-05-11T17:03:27.891Z,10.30
2019-05-11T17:05:58.718Z,10.40
2019-05-11T17:08:27.697Z,10.50
2019-05-11T17:10:59.452Z,10.40
2019-05-11T17:13:28.104Z,10.20
2019-05-11T17:15:58.286Z,10.00
2019-05-11T17:18:28.338Z,9.90
2019-05-11T17:20:58.466Z,9.90
2019-05-11T17:23:31.002Z,9.80
2019-05-11T17:25:58.099Z,9.50
2019-05-11T17:28:26.665Z,9.40
2019-05-11T17:30:55.082Z,9.50
2019-05-11T17:33:23.493Z,9.30
2019-05-11T17:35:51.946Z,9.30
2019-05-11T17:38:20.363Z,9.30
2019-05-11T17:40:48.792Z,9.20
2019-05-11T17:43:18.171Z,9.00
2019-05-11T17:45:47.979Z,9.00
2019-05-11T17:48:17.850Z,9.00
2019-05-11T17:50:46.590Z,8.90
2019-05-11T17:53:15.036Z,8.90
2019-05-11T17:55:45.144Z,8.80
2019-05-11T17:58:13.550Z,8.90
2019-05-11T18:00:42.037Z,8.90
2019-05-11T18:03:11.571Z,8.80
2019-05-11T18:05:40.068Z,8.80
2019-05-11T18:08:10.194Z,8.80
2019-05-11T18:10:38.627Z,8.80
2019-05-11T18:13:07.097Z,8.80
2019-05-11T18:15:37.901Z,8.80
2019-05-11T18:18:05.860Z,8.80
2019-05-11T18:20:34.339Z,8.80
2019-05-11T18:23:02.787Z,8.80
2019-05-11T18:25:31.223Z,8.80
2019-05-11T18:27:59.712Z,8.80
2019-05-11T18:30:29.410Z,8.70
2019-05-11T18:32:59.436Z,8.70
2019-05-11T18:35:28.115Z,8.80
2019-05-11T18:37:56.536Z,8.80
2019-05-11T18:40:25.955Z,8.70
2019-05-11T18:42:54.420Z,8.80
2019-05-11T18:45:22.866Z,8.80
2019-05-11T18:47:52.572Z,8.70
2019-05-11T18:50:30.639Z,8.70
2019-05-11T18:52:51.171Z,8.70
2019-05-11T18:55:19.605Z,8.70
2019-05-11T18:57:49.019Z,8.70
2019-05-11T19:00:18.492Z,8.70
2019-05-11T19:02:49.370Z,8.70
2019-05-11T19:05:17.988Z,8.70
2019-05-11T19:07:48.144Z,8.70
2019-05-11T19:10:17.104Z,8.70
2019-05-11T19:12:45.585Z,8.70
2019-05-11T19:15:14.332Z,8.80
2019-05-11T19:17:42.766Z,8.80
2019-05-11T19:20:11.232Z,8.80
2019-05-11T19:22:39.706Z,8.70
2019-05-11T19:25:09.029Z,8.80
2019-05-11T19:27:37.720Z,8.80
2019-05-11T19:30:09.348Z,8.80
2019-05-11T19:32:38.385Z,8.80
2019-05-11T19:35:08.962Z,8.80
2019-05-11T19:37:38.714Z,8.80
2019-05-11T19:40:09.066Z,8.80
2019-05-11T19:42:55.938Z,8.80
2019-05-11T19:45:24.752Z,8.90
2019-05-11T19:47:53.222Z,8.90
2019-05-11T19:50:21.657Z,8.80
2019-05-11T19:52:50.066Z,8.90
2019-05-11T19:55:18.604Z,9.00
2019-05-11T19:57:48.194Z,8.90
2019-05-11T20:00:18.478Z,8.90
2019-05-11T20:02:48.017Z,8.90
2019-05-11T20:05:18.480Z,9.00
2019-05-11T20:07:48.609Z,8.90
2019-05-11T20:10:18.906Z,9.00
2019-05-11T20:12:48.644Z,9.00
2019-05-11T20:15:18.967Z,9.00
2019-05-11T20:17:48.946Z,9.00
2019-05-11T20:20:18.790Z,9.20
2019-05-11T20:22:48.247Z,9.10
2019-05-11T20:25:19.127Z,9.20
2019-05-11T20:27:48.734Z,9.20
2019-05-11T20:30:18.880Z,9.30
2019-05-11T20:32:48.832Z,9.20
2019-05-11T20:35:18.739Z,9.20
2019-05-11T20:37:48.629Z,9.30
2019-05-11T20:40:18.544Z,9.30
2019-05-11T20:42:48.544Z,9.30
2019-05-11T20:45:18.685Z,9.30
2019-05-11T20:47:48.911Z,9.20
2019-05-11T20:50:18.598Z,9.20
2019-05-11T20:52:48.114Z,9.10
2019-05-11T20:55:18.675Z,9.10
2019-05-11T20:57:48.363Z,9.20
2019-05-11T21:00:18.645Z,9.10
2019-05-11T21:02:49.098Z,9.10
2019-05-11T21:05:18.582Z,9.20
2019-05-11T21:07:47.801Z,9.30
2019-05-11T21:10:16.815Z,9.20
2019-05-11T21:12:45.839Z,9.20
2019-05-11T21:15:15.671Z,9.20
2019-05-11T21:17:44.583Z,9.10
2019-05-11T21:20:13.827Z,9.20
2019-05-11T21:22:42.362Z,9.20
2019-05-11T21:25:11.125Z,9.20
2019-05-11T21:27:39.524Z,9.10
2019-05-11T21:30:09.784Z,9.00
2019-05-11T21:32:39.354Z,9.10
2019-05-11T21:35:08.795Z,9.00
2019-05-11T21:37:38.882Z,9.10
2019-05-11T21:40:09.260Z,9.10
2019-05-11T21:42:38.896Z,9.10
2019-05-11T21:45:09.763Z,9.10
2019-05-11T21:47:39.291Z,9.10
2019-05-11T21:50:09.391Z,9.10
2019-05-11T21:52:38.549Z,9.10
2019-05-11T21:55:09.341Z,9.20
2019-05-11T21:57:38.506Z,9.20
2019-05-11T22:00:09.052Z,9.20
2019-05-11T22:02:38.586Z,9.20
2019-05-11T22:05:08.521Z,9.20
2019-05-11T22:07:38.874Z,9.20
2019-05-11T22:10:10.900Z,9.10
2019-05-11T22:12:39.515Z,9.20
2019-05-11T22:15:10.032Z,9.20
2019-05-11T22:17:39.591Z,9.20
2019-05-11T22:20:09.417Z,9.20
2019-05-11T22:22:39.380Z,9.20
2019-05-11T22:25:09.806Z,9.20
2019-05-11T22:27:39.054Z,9.20
2019-05-11T22:30:08.715Z,9.20
2019-05-11T22:32:38.486Z,9.20
2019-05-11T22:35:08.857Z,9.20
2019-05-11T22:37:38.589Z,9.20
2019-05-11T22:40:08.706Z,9.10
2019-05-11T22:42:37.432Z,9.10
2019-05-11T22:45:09.244Z,9.20
2019-05-11T22:47:39.900Z,9.20
2019-05-11T22:50:09.046Z,9.20
2019-05-11T22:52:40.297Z,9.20
2019-05-11T22:55:11.688Z,9.20
2019-05-11T22:57:38.949Z,9.40
2019-05-11T23:00:09.218Z,9.40
2019-05-11T23:02:38.196Z,9.30
2019-05-11T23:05:09.002Z,9.30
2019-05-11T23:07:41.516Z,9.20
2019-05-11T23:10:09.671Z,9.20
2019-05-11T23:12:38.560Z,9.10
2019-05-11T23:15:14.604Z,9.10
2019-05-11T23:17:43.156Z,9.10
2019-05-11T23:20:12.001Z,9.10
2019-05-11T23:22:57.983Z,9.10
2019-05-11T23:25:19.526Z,9.10
2019-05-11T23:27:48.747Z,9.10
2019-05-11T23:30:19.961Z,9.10
2019-05-11T23:32:49.176Z,9.10
2019-05-11T23:35:18.748Z,9.20
2019-05-11T23:37:49.631Z,9.10
2019-05-11T23:40:19.395Z,9.20
2019-05-11T23:42:48.966Z,9.10
2019-05-11T23:45:18.910Z,9.10
2019-05-11T23:47:48.662Z,9.20
2019-05-11T23:50:18.944Z,9.10
2019-05-11T23:52:48.830Z,9.10
2019-05-11T23:55:19.233Z,9.30
2019-05-11T23:57:48.722Z,9.30
